Time;durP1;ratioP1;P1;durP2;ratioP2;P2;SDS_P1;SDS_P2;PMS_P1;PMS_P2;Temp;Humidity;BMP_temperature;BMP_pressure;BME280_temperature;BME280_humidity;BME280_pressure;Samples;Min_cycle;Max_cycle;Signal;HPM_P1;HPM_P2
2023/01/22 00:01:37;;;;;;;1999.90;999.90;;;-0.60;99.90;;;;;;5012398;28;20113;-78
2023/01/22 00:04:02;;;;;;;1999.90;999.90;;;-0.50;99.90;;;;;;5014090;28;20036;-78
2023/01/22 00:06:28;;;;;;;1999.90;999.90;;;-0.60;99.90;;;;;;5014098;28;20026;-78
2023/01/22 00:08:54;;;;;;;1999.90;999.90;;;-0.60;99.90;;;;;;5014106;28;20053;-78
2023/01/22 00:11:19;;;;;;;1999.90;999.90;;;-0.60;99.90;;;;;;5013901;28;20036;-78
2023/01/22 00:13:45;;;;;;;1999.90;999.90;;;-0.60;99.90;;;;;;5012319;28;20161;-78
2023/01/22 00:16:14;;;;;;;1999.90;999.90;;;-0.60;99.90;;;;;;5014151;28;20026;-78
2023/01/22 00:18:39;;;;;;;1999.90;999.90;;;-0.50;99.90;;;;;;5012526;28;20393;-78
2023/01/22 00:21:06;;;;;;;1999.90;999.90;;;-0.60;99.90;;;;;;5011957;28;20049;-78
2023/01/22 00:23:32;;;;;;;1999.90;999.90;;;-0.60;99.90;;;;;;5012217;28;20153;-78
2023/01/22 00:26:06;;;;;;;1999.90;999.90;;;-0.60;99.90;;;;;;5013450;28;20034;-78
2023/01/22 00:28:32;;;;;;;1999.90;999.90;;;-0.70;99.90;;;;;;5013283;28;20029;-78
2023/01/22 00:31:02;;;;;;;1999.90;999.90;;;-0.70;99.90;;;;;;5013313;28;20401;-78
2023/01/22 00:33:28;;;;;;;1999.90;999.90;;;-0.70;99.90;;;;;;5013337;28;20030;-78
2023/01/22 00:35:54;;;;;;;1999.90;999.90;;;-0.80;99.90;;;;;;5013242;28;20096;-78
2023/01/22 00:38:19;;;;;;;1999.90;999.90;;;-0.80;99.90;;;;;;5011893;28;20022;-78
2023/01/22 00:40:45;;;;;;;1999.90;999.90;;;-0.80;99.90;;;;;;5013516;28;20079;-78
2023/01/22 00:43:10;;;;;;;1999.90;999.90;;;-0.80;99.90;;;;;;5013388;28;20032;-78
2023/01/22 00:45:36;;;;;;;1999.90;999.90;;;-0.80;99.90;;;;;;5013901;28;20061;-78
2023/01/22 00:48:02;;;;;;;1999.90;999.90;;;-0.80;99.90;;;;;;5013443;28;20037;-78
2023/01/22 00:50:27;;;;;;;1999.90;999.90;;;-0.80;99.90;;;;;;5013319;28;20127;-78
2023/01/22 00:52:53;;;;;;;1999.90;999.90;;;-0.80;99.90;;;;;;5013500;28;20030;-78
2023/01/22 00:55:19;;;;;;;1999.90;999.90;;;-0.80;99.90;;;;;;5013209;28;20424;-78
2023/01/22 00:57:44;;;;;;;1999.90;999.90;;;-0.80;99.90;;;;;;5011439;28;20033;-78
2023/01/22 01:00:16;;;;;;;1999.90;999.90;;;-0.80;99.90;;;;;;5013018;28;20030;-79
2023/01/22 01:05:27;;;;;;;1999.90;999.90;;;-0.80;99.90;;;;;;5013621;28;20446;-78
2023/01/22 01:07:52;;;;;;;1999.90;999.90;;;-0.80;99.90;;;;;;5013541;28;20057;-78
2023/01/22 01:10:18;;;;;;;1999.90;999.90;;;-0.80;99.90;;;;;;5013103;28;20026;-78
2023/01/22 01:12:44;;;;;;;1999.90;999.90;;;-0.80;99.90;;;;;;5013500;28;20112;-78
2023/01/22 01:15:10;;;;;;;1999.90;999.90;;;-0.80;99.90;;;;;;5013047;28;20022;-78
2023/01/22 01:17:35;;;;;;;1999.90;999.90;;;-0.70;99.90;;;;;;5013193;28;20060;-78
2023/01/22 01:20:01;;;;;;;1999.90;999.90;;;-0.70;99.90;;;;;;5011851;28;20454;-78
2023/01/22 01:22:27;;;;;;;1999.90;999.90;;;-0.70;99.90;;;;;;5012791;28;20555;-79
2023/01/22 01:24:52;;;;;;;1999.90;999.90;;;-0.80;99.90;;;;;;5013130;28;20080;-79
2023/01/22 01:27:18;;;;;;;1999.90;999.90;;;-0.70;99.90;;;;;;5013074;28;20034;-79
2023/01/22 01:29:43;;;;;;;1999.90;999.90;;;-0.80;99.90;;;;;;5011728;28;20030;-79
2023/01/22 01:32:09;;;;;;;1999.90;999.90;;;-0.70;99.90;;;;;;5013170;28;20030;-78
2023/01/22 01:34:35;;;;;;;1999.90;999.90;;;-0.70;99.90;;;;;;5012895;28;20501;-78
2023/01/22 01:37:00;;;;;;;1999.90;999.90;;;-0.70;99.90;;;;;;5013410;28;20030;-78
2023/01/22 01:39:26;;;;;;;1999.90;999.90;;;-0.70;99.90;;;;;;5013304;28;20504;-78
2023/01/22 01:41:51;;;;;;;1999.90;999.90;;;-0.60;99.90;;;;;;5013316;28;20022;-78
2023/01/22 01:44:20;;;;;;;1999.90;999.90;;;-0.60;99.90;;;;;;5013225;28;20030;-78
2023/01/22 01:46:52;;;;;;;1999.90;999.90;;;-0.50;99.90;;;;;;5012962;28;20049;-78
2023/01/22 01:49:33;;;;;;;1999.90;999.90;;;-0.60;99.90;;;;;;5014337;28;20037;-78
2023/01/22 01:52:05;;;;;;;1999.90;999.90;;;-0.60;99.90;;;;;;5016667;28;20034;-79
2023/01/22 01:54:31;;;;;;;1999.90;999.90;;;-0.70;99.90;;;;;;5016722;28;20448;-78
2023/01/22 01:57:04;;;;;;;1999.90;999.90;;;-0.60;99.90;;;;;;5016617;28;20053;-78
2023/01/22 01:59:32;;;;;;;1999.90;999.90;;;-0.70;99.90;;;;;;5016533;28;20026;-79
2023/01/22 02:02:00;;;;;;;1999.90;999.90;;;-0.70;99.90;;;;;;5016778;28;20113;-78
2023/01/22 02:04:26;;;;;;;1999.90;999.90;;;-0.70;99.90;;;;;;5016453;28;20030;-78
2023/01/22 02:06:52;;;;;;;1999.90;999.90;;;-0.70;99.90;;;;;;5016485;28;20453;-78
2023/01/22 02:09:18;;;;;;;1999.90;999.90;;;-0.70;99.90;;;;;;5015024;28;20060;-78
2023/01/22 02:11:44;;;;;;;1999.90;999.90;;;-0.70;99.90;;;;;;5016243;28;20036;-78
2023/01/22 02:14:14;;;;;;;1999.90;999.90;;;-0.70;99.90;;;;;;5016193;28;20030;-78
2023/01/22 02:16:40;;;;;;;1999.90;999.90;;;-0.70;99.90;;;;;;5016154;28;20018;-78
2023/01/22 02:19:05;;;;;;;1999.90;999.90;;;-0.70;99.90;;;;;;5016093;28;20088;-78
2023/01/22 02:21:42;;;;;;;1999.90;999.90;;;-0.70;99.90;;;;;;5015939;28;20084;-78
2023/01/22 02:24:13;;;;;;;1999.90;999.90;;;-0.80;99.90;;;;;;5016065;28;20061;-78
2023/01/22 02:26:41;;;;;;;1999.90;999.90;;;-0.80;99.90;;;;;;5014732;28;20485;-78
2023/01/22 02:29:09;;;;;;;1999.90;999.90;;;-0.80;99.90;;;;;;5014296;28;20033;-78
2023/01/22 02:31:36;;;;;;;1999.90;999.90;;;-0.80;99.90;;;;;;5015249;28;20026;-78
2023/01/22 02:34:02;;;;;;;1999.90;999.90;;;-0.80;99.90;;;;;;5015452;28;20108;-78
2023/01/22 02:36:29;;;;;;;1999.90;999.90;;;-0.80;99.90;;;;;;5015516;28;20101;-78
2023/01/22 02:38:55;;;;;;;1999.90;999.90;;;-0.80;99.90;;;;;;5014956;28;20097;-78
2023/01/22 02:41:21;;;;;;;1999.90;999.90;;;-0.80;99.90;;;;;;5015442;28;20057;-78
2023/01/22 02:43:46;;;;;;;1999.90;999.90;;;-0.80;99.90;;;;;;5015160;28;20026;-78
2023/01/22 02:46:12;;;;;;;1999.90;999.90;;;-0.80;99.90;;;;;;5015574;28;20030;-78
2023/01/22 02:48:38;;;;;;;1999.90;999.90;;;-0.80;99.90;;;;;;5015475;28;20100;-78
2023/01/22 02:51:04;;;;;;;1999.90;999.90;;;-0.90;99.90;;;;;;5015533;28;20100;-78
2023/01/22 02:53:30;;;;;;;1999.90;999.90;;;-0.90;99.90;;;;;;5014285;28;20489;-78
2023/01/22 02:55:55;;;;;;;1999.90;999.90;;;-0.90;99.90;;;;;;5014167;28;20037;-79
2023/01/22 02:58:21;;;;;;;1999.90;999.90;;;-1.00;99.90;;;;;;5015533;28;20014;-78
2023/01/22 03:00:46;;;;;;;1999.90;999.90;;;-0.90;99.90;;;;;;5015046;28;20026;-78
2023/01/22 03:03:15;;;;;;;1999.90;999.90;;;-0.90;99.90;;;;;;5014042;28;20041;-79
2023/01/22 03:05:50;;;;;;;1999.90;999.90;;;-0.90;99.90;;;;;;5015293;28;20046;-79
2023/01/22 03:08:17;;;;;;;1999.90;999.90;;;-1.00;99.90;;;;;;5015396;28;20034;-78
2023/01/22 03:10:43;;;;;;;1999.90;999.90;;;-0.90;99.90;;;;;;5015276;28;20038;-78
2023/01/22 03:21:21;;;;;;;1999.90;999.90;;;-0.90;99.90;;;;;;5014930;28;20065;-78
2023/01/22 03:23:53;;;;;;;1999.90;999.90;;;-1.00;99.90;;;;;;4997494;28;20469;-78
2023/01/22 03:26:22;;;;;;;1999.90;999.90;;;-1.00;99.90;;;;;;5014878;28;20477;-78
2023/01/22 03:28:48;;;;;;;1999.90;999.90;;;-1.00;99.90;;;;;;5013431;28;20113;-78
2023/01/22 03:31:15;;;;;;;1999.90;999.90;;;-1.00;99.90;;;;;;5015060;28;20479;-78
2023/01/22 03:33:42;;;;;;;1999.90;999.90;;;-1.00;99.90;;;;;;5014714;28;20025;-78
2023/01/22 03:36:10;;;;;;;1999.90;999.90;;;-1.00;99.90;;;;;;5014552;28;20026;-78
2023/01/22 03:38:36;;;;;;;1999.90;999.90;;;-1.00;99.90;;;;;;5014597;28;20037;-78
2023/01/22 03:41:07;;;;;;;1999.90;999.90;;;-1.00;99.90;;;;;;5014382;28;20037;-78
2023/01/22 03:43:33;;;;;;;1999.90;999.90;;;-1.00;99.90;;;;;;5012834;28;20553;-79
2023/01/22 03:46:05;;;;;;;1999.90;999.90;;;-1.00;99.90;;;;;;5014245;28;20040;-78
2023/01/22 03:48:31;;;;;;;1999.90;999.90;;;-1.00;99.90;;;;;;5012894;28;20026;-78
2023/01/22 03:50:56;;;;;;;1999.90;999.90;;;-1.00;99.90;;;;;;5014173;28;20041;-78
2023/01/22 03:53:22;;;;;;;1999.90;999.90;;;-1.00;99.90;;;;;;5014192;28;20113;-78
2023/01/22 03:55:59;;;;;;;1999.90;999.90;;;-1.10;99.90;;;;;;5013830;28;20116;-78
2023/01/22 03:58:25;;;;;;;1999.90;999.90;;;-1.10;99.90;;;;;;5014429;28;20021;-78
2023/01/22 04:00:51;;;;;;;1999.90;999.90;;;-1.10;99.90;;;;;;5014217;28;20099;-78
2023/01/22 04:03:16;;;;;;;1999.90;999.90;;;-1.10;99.90;;;;;;5014210;28;20540;-78
2023/01/22 04:05:42;;;;;;;1999.90;999.90;;;-1.20;99.90;;;;;;5013955;28;20026;-78
2023/01/22 04:08:07;;;;;;;1999.90;999.90;;;-1.20;99.90;;;;;;5012568;28;20477;-78
2023/01/22 04:10:33;;;;;;;1999.90;999.90;;;-1.20;99.90;;;;;;5013815;28;20065;-78
2023/01/22 04:12:59;;;;;;;1999.90;999.90;;;-1.20;99.90;;;;;;5012551;28;20108;-78
2023/01/22 04:15:24;;;;;;;1999.90;999.90;;;-1.20;99.90;;;;;;5013508;28;20030;-78
2023/01/22 04:17:50;;;;;;;1999.90;999.90;;;-1.30;99.90;;;;;;5012542;28;20034;-78
2023/01/22 04:20:16;;;;;;;1999.90;999.90;;;-1.30;99.90;;;;;;5014032;28;20033;-78
2023/01/22 04:22:41;;;;;;;1999.90;999.90;;;-1.30;99.90;;;;;;5013784;28;20036;-78
2023/01/22 04:25:07;;;;;;;1999.90;999.90;;;-1.40;99.90;;;;;;5013816;28;20511;-78
2023/01/22 04:27:36;;;;;;;1999.90;999.90;;;-1.40;99.90;;;;;;5013761;28;20397;-78
2023/01/22 04:30:04;;;;;;;1999.90;999.90;;;-1.40;99.90;;;;;;5012397;28;20030;-78
2023/01/22 04:32:29;;;;;;;1999.90;999.90;;;-1.40;99.90;;;;;;5013539;28;20165;-78
2023/01/22 04:34:55;;;;;;;1999.90;999.90;;;-1.50;99.90;;;;;;5012372;28;20596;-78
2023/01/22 04:37:20;;;;;;;1999.90;999.90;;;-1.50;99.90;;;;;;5012365;28;20067;-78
2023/01/22 04:39:46;;;;;;;1999.90;999.90;;;-1.50;99.90;;;;;;5012289;28;20025;-78
2023/01/22 04:42:11;;;;;;;1999.90;999.90;;;-1.50;99.90;;;;;;5012308;28;20477;-78
2023/01/22 04:44:37;;;;;;;1999.90;999.90;;;-1.50;99.90;;;;;;5013715;28;20057;-78
2023/01/22 04:47:03;;;;;;;1999.90;999.90;;;-1.60;99.90;;;;;;5012408;28;20030;-78
2023/01/22 04:49:28;;;;;;;1999.90;999.90;;;-1.60;99.90;;;;;;5013556;28;20021;-78
2023/01/22 04:51:55;;;;;;;1999.90;999.90;;;-1.60;99.90;;;;;;5013509;28;20030;-78
2023/01/22 04:54:20;;;;;;;1999.90;999.90;;;-1.60;99.90;;;;;;5011831;28;20030;-78
2023/01/22 04:56:46;;;;;;;1999.90;999.90;;;-1.60;99.90;;;;;;5012947;28;20026;-78
2023/01/22 04:59:11;;;;;;;1999.90;999.90;;;-1.60;99.90;;;;;;5012975;28;20516;-78
2023/01/22 05:01:37;;;;;;;1999.90;999.90;;;-1.70;99.90;;;;;;5012836;28;20030;-78
2023/01/22 05:04:03;;;;;;;1999.90;999.90;;;-1.80;99.90;;;;;;5011731;28;20025;-78
2023/01/22 05:06:29;;;;;;;1999.90;999.90;;;-1.80;99.90;;;;;;5011768;28;20026;-79
2023/01/22 05:08:55;;;;;;;1999.90;999.90;;;-1.80;99.90;;;;;;5012907;28;20018;-79
2023/01/22 05:11:20;;;;;;;1999.90;999.90;;;-1.80;99.90;;;;;;5012965;28;20080;-79
2023/01/22 05:13:46;;;;;;;1999.90;999.90;;;-1.80;99.90;;;;;;5013179;28;20151;-79
2023/01/22 05:16:12;;;;;;;1999.90;999.90;;;-1.80;99.90;;;;;;5011793;28;20022;-79
2023/01/22 05:18:37;;;;;;;1999.90;999.90;;;-1.90;99.90;;;;;;5012769;28;20026;-78
2023/01/22 05:21:03;;;;;;;1999.90;999.90;;;-1.90;99.90;;;;;;5012533;28;20053;-78
2023/01/22 05:23:29;;;;;;;1999.90;999.90;;;-1.90;99.90;;;;;;5014660;28;20397;-79
2023/01/22 05:25:54;;;;;;;1999.90;999.90;;;-1.80;99.90;;;;;;5016840;28;20033;-79
2023/01/22 05:28:20;;;;;;;1999.90;999.90;;;-1.90;99.90;;;;;;5020317;28;20128;-78
2023/01/22 05:30:47;;;;;;;1999.90;999.90;;;-1.90;99.90;;;;;;5027536;28;20030;-78
2023/01/22 05:33:13;;;;;;;1999.90;999.90;;;-1.80;99.90;;;;;;5027450;28;20029;-78
2023/01/22 05:35:38;;;;;;;1999.90;999.90;;;-1.90;99.90;;;;;;5027269;28;20068;-77
2023/01/22 05:38:04;;;;;;;1999.90;999.90;;;-1.90;99.90;;;;;;5027040;28;20027;-78
2023/01/22 05:40:30;;;;;;;1999.90;999.90;;;-1.90;99.90;;;;;;5024033;28;20026;-78
2023/01/22 05:42:55;;;;;;;1999.90;999.90;;;-1.90;99.90;;;;;;5017361;28;20038;-79
2023/01/22 05:45:21;;;;;;;1999.90;999.90;;;-1.90;99.90;;;;;;5017515;28;20026;-79
2023/01/22 05:47:53;;;;;;;1999.90;999.90;;;-1.90;99.90;;;;;;5015473;28;20112;-79
2023/01/22 05:50:20;;;;;;;1999.90;999.90;;;-1.90;99.90;;;;;;5016864;28;20026;-79
2023/01/22 05:52:45;;;;;;;1999.90;999.90;;;-1.90;99.90;;;;;;5016750;28;20563;-79
2023/01/22 05:55:11;;;;;;;1999.90;999.90;;;-2.00;99.90;;;;;;5014950;28;20025;-79
2023/01/22 05:57:37;;;;;;;1999.90;999.90;;;-1.90;99.90;;;;;;5015070;28;20058;-79
2023/01/22 06:00:04;;;;;;;1999.90;999.90;;;-1.90;99.90;;;;;;5016579;28;20029;-78
2023/01/22 06:02:30;;;;;;;1999.90;999.90;;;-1.90;99.90;;;;;;5016631;28;20049;-78
2023/01/22 06:04:55;;;;;;;1999.90;999.90;;;-1.90;99.90;;;;;;5016648;28;20496;-78
2023/01/22 06:07:21;;;;;;;1999.90;999.90;;;-1.90;99.90;;;;;;5016415;28;20422;-78
2023/01/22 06:09:47;;;;;;;1999.90;999.90;;;-1.90;99.90;;;;;;5016281;28;20025;-79
2023/01/22 06:12:14;;;;;;;1999.90;999.90;;;-2.00;99.90;;;;;;5015138;28;20104;-78
2023/01/22 06:14:40;;;;;;;1999.90;999.90;;;-1.90;99.90;;;;;;5016216;28;20092;-78
2023/01/22 06:17:06;;;;;;;1999.90;999.90;;;-1.90;99.90;;;;;;5014930;28;20031;-78
2023/01/22 06:19:31;;;;;;;1999.90;999.90;;;-1.90;99.90;;;;;;5016421;28;20026;-79
2023/01/22 06:21:57;;;;;;;1999.90;999.90;;;-1.90;99.90;;;;;;5015606;28;20049;-79
2023/01/22 06:24:23;;;;;;;1999.90;999.90;;;-1.90;99.90;;;;;;5014712;28;20550;-79
2023/01/22 06:26:48;;;;;;;1999.90;999.90;;;-2.00;99.90;;;;;;5016148;28;20021;-78
2023/01/22 06:29:14;;;;;;;1999.90;999.90;;;-2.00;99.90;;;;;;5014707;28;20485;-79
2023/01/22 06:31:39;;;;;;;1999.90;999.90;;;-2.00;99.90;;;;;;5016058;28;20111;-78
2023/01/22 06:34:05;;;;;;;1999.90;999.90;;;-1.90;99.90;;;;;;5015581;28;20034;-78
2023/01/22 06:36:31;;;;;;;1999.90;999.90;;;-1.90;99.90;;;;;;5003627;28;20102;-78
2023/01/22 06:38:57;;;;;;;1999.90;999.90;;;-1.90;99.90;;;;;;4995991;28;20022;-78
2023/01/22 06:41:22;;;;;;;1999.90;999.90;;;-1.90;99.90;;;;;;4994282;28;20033;-78
2023/01/22 06:43:48;;;;;;;1999.90;999.90;;;-2.00;99.90;;;;;;4994541;28;20031;-78
2023/01/22 06:46:14;;;;;;;1999.90;999.90;;;-1.90;99.90;;;;;;4996042;28;20054;-78
2023/01/22 06:48:42;;;;;;;1999.90;999.90;;;-2.00;99.90;;;;;;4994381;28;20037;-78
2023/01/22 06:51:08;;;;;;;1999.90;999.90;;;-1.90;99.90;;;;;;4994301;28;20027;-78
2023/01/22 06:53:34;;;;;;;1999.90;999.90;;;-1.90;99.90;;;;;;4995723;28;20076;-78
2023/01/22 06:56:00;;;;;;;1999.90;999.90;;;-1.90;99.90;;;;;;4994458;28;20038;-78
2023/01/22 06:58:27;;;;;;;1999.90;999.90;;;-2.00;99.90;;;;;;4995593;28;20026;-78
2023/01/22 07:00:52;;;;;;;1999.90;999.90;;;-2.00;99.90;;;;;;4995356;28;20031;-78
2023/01/22 07:03:19;;;;;;;1999.90;999.90;;;-2.00;99.90;;;;;;4995405;28;20074;-78
2023/01/22 07:05:44;;;;;;;1999.90;999.90;;;-2.00;99.90;;;;;;4995237;28;20065;-78
2023/01/22 07:08:16;;;;;;;1999.90;999.90;;;-2.00;99.90;;;;;;4995205;28;20485;-78
2023/01/22 07:10:41;;;;;;;1999.90;999.90;;;-2.10;99.90;;;;;;4995216;28;20030;-78
2023/01/22 07:13:09;;;;;;;1999.90;999.90;;;-2.20;99.90;;;;;;4995052;28;20520;-78
2023/01/22 07:15:34;;;;;;;1999.90;999.90;;;-2.20;99.90;;;;;;4994608;28;20026;-79
2023/01/22 07:18:00;;;;;;;1999.90;999.90;;;-2.10;99.90;;;;;;4994610;28;20398;-79
2023/01/22 07:20:26;;;;;;;1999.90;999.90;;;-2.10;99.90;;;;;;4994493;28;20030;-78
2023/01/22 07:22:51;;;;;;;1999.90;999.90;;;-2.10;99.90;;;;;;4994945;28;20035;-78
2023/01/22 07:25:18;;;;;;;1999.90;999.90;;;-2.00;99.90;;;;;;4994902;28;20494;-79
2023/01/22 07:27:44;;;;;;;1999.90;999.90;;;-2.00;99.90;;;;;;4993475;28;20076;-78
2023/01/22 07:30:10;;;;;;;1999.90;999.90;;;-2.00;99.90;;;;;;4994920;28;20053;-78
2023/01/22 07:32:35;;;;;;;1999.90;999.90;;;-2.00;99.90;;;;;;4993763;28;20113;-78
2023/01/22 07:35:01;;;;;;;1999.90;999.90;;;-2.00;99.90;;;;;;4994871;28;20101;-78
2023/01/22 07:37:27;;;;;;;1999.90;999.90;;;-2.00;99.90;;;;;;4995044;28;20022;-78
2023/01/22 07:39:52;;;;;;;1999.90;999.90;;;-2.10;99.90;;;;;;4993763;28;20482;-78
2023/01/22 07:42:18;;;;;;;1999.90;999.90;;;-2.10;99.90;;;;;;4995068;28;20026;-79
2023/01/22 07:44:43;;;;;;;1999.90;999.90;;;-2.10;99.90;;;;;;4995180;28;20062;-78
2023/01/22 07:47:09;;;;;;;1999.90;999.90;;;-2.10;99.90;;;;;;4992449;28;20065;-78
2023/01/22 07:49:35;;;;;;;1999.90;999.90;;;-2.10;99.90;;;;;;4994862;28;20030;-78
2023/01/22 07:52:00;;;;;;;1999.90;999.90;;;-2.10;99.90;;;;;;4994800;28;20057;-78
2023/01/22 07:54:26;;;;;;;1999.90;999.90;;;-2.10;99.90;;;;;;4994890;28;20073;-78
2023/01/22 07:56:51;;;;;;;1999.90;999.90;;;-2.10;99.90;;;;;;4993284;28;20022;-78
2023/01/22 07:59:17;;;;;;;1999.90;999.90;;;-2.10;99.90;;;;;;5009854;28;20022;-78
2023/01/22 08:01:43;;;;;;;1999.90;999.90;;;-2.10;99.90;;;;;;5014155;28;20446;-78
2023/01/22 08:04:08;;;;;;;1999.90;999.90;;;-2.10;99.90;;;;;;5014383;28;20033;-78
2023/01/22 08:06:34;;;;;;;1999.90;999.90;;;-2.10;99.90;;;;;;5012929;28;20061;-78
2023/01/22 08:09:00;;;;;;;1999.90;999.90;;;-2.00;99.90;;;;;;5014078;28;20481;-78
2023/01/22 08:11:27;;;;;;;1999.90;999.90;;;-2.00;99.90;;;;;;5012872;28;20029;-78
2023/01/22 08:13:53;;;;;;;1999.90;999.90;;;-1.90;99.90;;;;;;5013907;28;20034;-78
2023/01/22 08:16:19;;;;;;;1999.90;999.90;;;-1.90;99.90;;;;;;5014289;28;20130;-78
2023/01/22 08:18:45;;;;;;;1999.90;999.90;;;-1.80;99.90;;;;;;5013961;28;20026;-78
2023/01/22 08:21:11;;;;;;;1999.90;999.90;;;-1.70;99.90;;;;;;5013913;28;20625;-78
2023/01/22 08:23:36;;;;;;;1999.90;999.90;;;-1.60;99.90;;;;;;5013988;28;20022;-78
2023/01/22 08:26:02;;;;;;;1999.90;999.90;;;-1.50;99.90;;;;;;5014222;28;20092;-78
2023/01/22 08:28:30;;;;;;;1999.90;999.90;;;-1.40;99.90;;;;;;5013837;28;20048;-78
2023/01/22 08:30:57;;;;;;;1999.90;999.90;;;-1.40;99.90;;;;;;5013705;28;20026;-78
2023/01/22 08:33:22;;;;;;;1999.90;999.90;;;-1.30;99.90;;;;;;5012362;28;20416;-78
2023/01/22 08:35:48;;;;;;;1999.90;999.90;;;-1.20;99.90;;;;;;5013393;28;20022;-78
2023/01/22 08:38:14;;;;;;;1999.90;999.90;;;-1.10;99.90;;;;;;5013445;28;20032;-78
2023/01/22 08:40:40;;;;;;;1999.90;999.90;;;-1.00;99.90;;;;;;5013352;28;20097;-78
2023/01/22 08:43:05;;;;;;;1999.90;999.90;;;-0.90;99.90;;;;;;5013319;28;20057;-78
2023/01/22 08:45:31;;;;;;;1999.90;999.90;;;-0.10;99.90;;;;;;5013532;28;20030;-78
2023/01/22 08:47:58;;;;;;;1999.90;999.90;;;1.50;99.90;;;;;;5013795;28;20041;-78
2023/01/22 08:50:25;;;;;;;1999.90;999.90;;;1.90;99.90;;;;;;5012400;28;20108;-78
2023/01/22 08:52:50;;;;;;;1999.90;999.90;;;2.30;99.90;;;;;;5013305;28;20034;-78
2023/01/22 08:55:16;;;;;;;1999.90;999.90;;;2.10;99.90;;;;;;5012961;28;20033;-78
2023/01/22 08:57:42;;;;;;;1999.90;999.90;;;1.90;99.90;;;;;;5011567;28;20088;-78
2023/01/22 09:00:10;;;;;;;1999.90;999.90;;;1.90;99.90;;;;;;5013265;28;20100;-78
2023/01/22 09:02:35;;;;;;;1999.90;999.90;;;1.50;99.90;;;;;;5013214;28;20030;-79
2023/01/22 09:05:01;;;;;;;1999.90;999.90;;;1.00;99.90;;;;;;5013266;28;20102;-79
2023/01/22 09:07:26;;;;;;;1999.90;999.90;;;0.70;99.90;;;;;;5013361;28;20100;-79
2023/01/22 09:09:52;;;;;;;1999.90;999.90;;;0.50;99.90;;;;;;5013213;28;20033;-78
2023/01/22 09:12:17;;;;;;;1999.90;999.90;;;0.30;99.90;;;;;;5013540;28;20030;-78
2023/01/22 09:14:43;;;;;;;1999.90;999.90;;;0.20;99.90;;;;;;5013089;28;20061;-78
2023/01/22 09:17:09;;;;;;;1999.90;999.90;;;0.30;99.90;;;;;;5013289;28;20056;-78
2023/01/22 09:19:34;;;;;;;1999.90;999.90;;;0.40;99.90;;;;;;5012942;28;20022;-78
2023/01/22 09:22:05;;;;;;;1999.90;999.90;;;0.30;99.90;;;;;;5013176;28;20049;-78
2023/01/22 09:24:31;;;;;;;1999.90;999.90;;;0.40;99.90;;;;;;5011926;28;20145;-78
2023/01/22 09:26:58;;;;;;;1999.90;999.90;;;0.40;99.90;;;;;;5011713;28;20060;-78
2023/01/22 09:29:23;;;;;;;1999.90;999.90;;;0.50;99.90;;;;;;5013187;28;20033;-78
2023/01/22 09:31:49;;;;;;;1999.90;999.90;;;0.50;99.90;;;;;;5012976;28;20037;-78
2023/01/22 09:34:15;;;;;;;1999.90;999.90;;;0.50;99.90;;;;;;5013036;28;20058;-78
2023/01/22 09:36:42;;;;;;;1999.90;999.90;;;0.50;99.90;;;;;;5013131;28;20053;-78
2023/01/22 09:39:08;;;;;;;1999.90;999.90;;;0.50;99.90;;;;;;5013072;28;20026;-78
2023/01/22 09:41:37;;;;;;;1999.90;999.90;;;0.50;99.90;;;;;;5013127;28;20076;-79
2023/01/22 09:44:26;;;;;;;1999.90;999.90;;;0.50;99.90;;;;;;5012774;28;20421;-79
2023/01/22 09:47:00;;;;;;;1999.90;999.90;;;0.50;99.90;;;;;;5012947;28;20026;-79
2023/01/22 09:49:34;;;;;;;1999.90;999.90;;;0.50;99.90;;;;;;5012977;28;20018;-78
2023/01/22 09:52:01;;;;;;;1999.90;999.90;;;0.50;99.90;;;;;;5012959;28;20029;-78
2023/01/22 09:54:28;;;;;;;1999.90;999.90;;;0.50;99.90;;;;;;5012831;28;20374;-78
2023/01/22 09:57:01;;;;;;;1999.90;999.90;;;0.60;99.90;;;;;;5012727;28;20109;-78
2023/01/22 09:59:33;;;;;;;1999.90;999.90;;;0.70;99.90;;;;;;5012449;28;20018;-78
2023/01/22 10:02:11;;;;;;;1999.90;999.90;;;0.80;99.90;;;;;;5012554;28;20030;-78
2023/01/22 10:04:41;;;;;;;1999.90;999.90;;;0.90;99.90;;;;;;5012687;28;20026;-79
2023/01/22 10:07:13;;;;;;;1999.90;999.90;;;1.10;99.90;;;;;;5011412;28;20034;-79
2023/01/22 10:09:43;;;;;;;1999.90;999.90;;;1.10;99.90;;;;;;5013270;28;20030;-78
2023/01/22 10:12:12;;;;;;;1999.90;999.90;;;1.00;99.90;;;;;;5016546;28;20469;-78
2023/01/22 10:14:38;;;;;;;1999.90;999.90;;;1.00;99.90;;;;;;5016233;28;20026;-78
2023/01/22 10:17:17;;;;;;;1999.90;999.90;;;1.10;99.90;;;;;;5016060;28;20048;-78
2023/01/22 10:19:45;;;;;;;1999.90;999.90;;;1.30;99.90;;;;;;5014863;28;20100;-78
2023/01/22 10:22:18;;;;;;;1999.90;999.90;;;1.30;99.90;;;;;;5015720;28;20052;-78
2023/01/22 10:24:44;;;;;;;;;;;1.60;99.90;;;;;;5016871;28;20026;-78
2023/01/22 10:27:11;;;;;;;;;;;1.50;99.90;;;;;;5016308;28;20258;-78
2023/01/22 10:29:38;;;;;;;;;;;1.80;99.90;;;;;;5016757;28;19929;-78
2023/01/22 10:32:15;;;;;;;;;;;2.10;99.90;;;;;;5016593;28;19913;-78
2023/01/22 10:34:41;;;;;;;;;;;2.20;99.90;;;;;;5015104;28;20000;-79
2023/01/22 10:37:12;;;;;;;;;;;2.00;99.90;;;;;;5016261;28;20023;-79
2023/01/22 10:39:41;;;;;;;;;;;2.20;99.90;;;;;;5016145;28;20373;-79
2023/01/22 10:42:14;;;;;;;;;;;2.40;99.90;;;;;;5014916;28;19961;-79
2023/01/22 10:44:40;;;;;;;;;;;2.60;99.90;;;;;;5016209;28;19905;-78
2023/01/22 10:47:07;;;;;;;;;;;2.80;99.90;;;;;;5016085;28;19915;-78
2023/01/22 10:49:32;;;;;;;;;;;2.70;99.90;;;;;;5015904;28;19906;-78
2023/01/22 10:51:59;;;;;;;;;;;2.80;99.90;;;;;;5014791;28;19912;-78
2023/01/22 10:54:30;;;;;;;;;;;2.30;99.90;;;;;;5016169;28;20296;-78
2023/01/22 10:57:03;;;;;;;;;;;2.10;99.90;;;;;;5015921;28;20005;-78
2023/01/22 10:59:29;;;;;;;;;;;1.70;99.90;;;;;;5015891;28;19955;-78
2023/01/22 11:01:59;;;;;;;;;;;2.00;99.90;;;;;;5015869;28;19906;-78
2023/01/22 11:04:26;;;;;;;;;;;2.30;99.90;;;;;;5016250;28;19905;-78
2023/01/22 11:06:58;;;;;;;;;;;2.30;99.90;;;;;;5016122;28;19905;-78
2023/01/22 11:09:26;;;;;;;;;;;2.30;99.90;;;;;;5015570;28;19988;-78
2023/01/22 11:11:56;;;;;;;;;;;2.10;99.90;;;;;;5015610;28;20483;-78
2023/01/22 11:14:24;;;;;;;;;;;2.30;99.90;;;;;;5015608;28;19916;-78
2023/01/22 11:16:52;;;;;;;;;;;2.20;99.90;;;;;;5015344;28;19905;-78
2023/01/22 11:19:20;;;;;;;;;;;2.00;99.90;;;;;;5014642;28;20287;-78
2023/01/22 11:21:50;;;;;;;;;;;1.70;99.90;;;;;;5013714;28;19917;-78
2023/01/22 11:24:34;;;;;;;;;;;1.70;99.90;;;;;;5015781;28;19964;-78
2023/01/22 11:27:29;;;;;;;;;;;1.30;99.90;;;;;;5015595;28;19905;-78
2023/01/22 11:29:57;;;;;;;;;;;1.40;99.90;;;;;;5014592;28;19910;-78
2023/01/22 11:32:41;;;;;;;;;;;1.80;99.90;;;;;;5013921;28;19912;-78
2023/01/22 11:35:25;;;;;;;;;;;2.00;99.90;;;;;;5013663;28;19959;-78
2023/01/22 11:38:09;;;;;;;;;;;1.90;99.90;;;;;;5013854;28;19955;-78
2023/01/22 11:40:38;;;;;;;;;;;1.70;99.90;;;;;;5015493;28;19957;-78
2023/01/22 11:43:22;;;;;;;;;;;1.70;99.90;;;;;;5015282;28;20332;-78
2023/01/22 11:45:52;;;;;;;;;;;1.60;99.90;;;;;;5013753;28;20375;-78
2023/01/22 11:48:30;;;;;;;;;;;2.00;99.90;;;;;;5015140;28;19905;-78
2023/01/22 11:51:10;;;;;;;;;;;2.40;99.90;;;;;;5013704;28;19912;-78
2023/01/22 11:53:36;;;;;;;;;;;2.60;99.90;;;;;;5013708;28;19953;-78
2023/01/22 11:56:01;;;;;;;;;;;2.60;99.90;;;;;;5014878;28;19995;-79
2023/01/22 11:58:33;;;;;;;;;;;2.60;99.90;;;;;;5013412;28;19906;-79
2023/01/22 12:01:14;;;;;;;;;;;2.50;99.90;;;;;;5014741;28;19909;-78
2023/01/22 12:03:42;;;;;;;;;;;2.80;99.90;;;;;;5013269;28;19906;-78
2023/01/22 12:06:27;;;;;;;;;;;3.00;99.90;;;;;;5013374;28;19959;-78
2023/01/22 12:09:00;;;;;;;;;;;3.10;99.90;;;;;;5014812;28;19912;-78
2023/01/22 12:11:36;;;;;;;;;;;2.80;99.90;;;;;;5014835;28;20025;-78
2023/01/22 12:14:09;;;;;;;;;;;2.40;99.90;;;;;;5014764;28;20317;-78
2023/01/22 12:16:37;;;;;;;;;;;2.30;99.90;;;;;;5014709;28;19936;-78
2023/01/22 12:19:22;;;;;;;;;;;1.90;99.90;;;;;;5014465;28;19996;-78
2023/01/22 12:21:54;;;;;;;;;;;1.90;99.90;;;;;;5012959;28;19953;-78
2023/01/22 12:24:38;;;;;;;;;;;1.80;99.90;;;;;;5013264;28;19905;-78
2023/01/22 12:27:08;;;;;;;;;;;1.80;99.90;;;;;;5014315;28;20357;-78
2023/01/22 12:29:49;;;;;;;;;;;1.60;99.90;;;;;;5014602;28;19912;-78
2023/01/22 12:32:17;;;;;;;;;;;2.10;99.90;;;;;;5012325;28;19909;-78
2023/01/22 12:35:01;;;;;;;;;;;2.50;99.90;;;;;;5013988;28;20371;-78
2023/01/22 12:37:45;;;;;;;;;;;2.40;99.90;;;;;;5012718;28;19959;-78